Terminal Aerodrome Forecast
Issued by NWS

Home | Current Version | Previous Version | Text Only | Print | Product List | Glossary On
Versions: 1 2 3 4 5 6 7 8 9 10 11 12 13
000
FTUS42 TJSJ 281127
TAFJBQ
TAF
TJBQ 281127Z 2812/2912 VRB04KT P6SM FEW025 SCT060
     FM281400 06013KT P6SM VCSH SCT025 SCT040
     FM281700 06013KT P6SM VCTS SCT025CB
     FM282330 VRB05KT P6SM SCT030
      AMD NOT SKED 2902/2911=

USA.gov is the U.S. government's official web portal to all federal, state and local government web resources and services.